createdAt,value
2019-04-27T00:04:07.773Z,11.60
2019-04-27T00:09:20.463Z,11.00
2019-04-27T00:14:32.910Z,10.00
2019-04-27T00:19:43.806Z,7.20
2019-04-27T00:24:55.634Z,7.10
2019-04-27T00:30:05.875Z,7.60
2019-04-27T00:35:17.491Z,5.40
2019-04-27T00:40:56.814Z,6.20
2019-04-27T00:46:06.553Z,7.40
2019-04-27T00:51:14.491Z,8.00
2019-04-27T00:56:27.242Z,7.60
2019-04-27T01:01:39.388Z,7.10
2019-04-27T01:06:54.002Z,9.50
2019-04-27T01:12:08.918Z,7.00
2019-04-27T01:17:18.883Z,6.40
2019-04-27T01:22:34.152Z,8.70
2019-04-27T01:27:51.804Z,8.80
2019-04-27T01:33:09.727Z,8.00
2019-04-27T01:38:26.942Z,7.60
2019-04-27T01:43:46.202Z,8.50
2019-04-27T01:49:05.170Z,8.10
2019-04-27T01:54:31.320Z,8.50
2019-04-27T01:59:54.472Z,11.10
2019-04-27T02:05:19.212Z,18.20
2019-04-27T02:10:33.322Z,19.70
2019-04-27T02:15:45.494Z,18.00
2019-04-27T02:21:03.482Z,12.40
2019-04-27T02:26:21.523Z,13.30
2019-04-27T02:31:41.481Z,12.60
2019-04-27T02:37:09.969Z,13.00
2019-04-27T02:42:24.784Z,11.50
2019-04-27T02:47:44.654Z,8.40
2019-04-27T02:53:03.154Z,6.50
2019-04-27T02:58:21.395Z,5.90
2019-04-27T03:04:06.057Z,6.10
2019-04-27T03:09:31.603Z,5.00
2019-04-27T03:14:50.559Z,7.00
2019-04-27T03:20:10.107Z,5.60
2019-04-27T03:25:30.296Z,5.90
2019-04-27T03:30:52.007Z,5.60
2019-04-27T03:36:12.754Z,8.50
2019-04-27T03:41:24.534Z,8.10
2019-04-27T03:46:52.492Z,7.10
2019-04-27T03:52:09.601Z,8.10
2019-04-27T03:57:35.513Z,10.90
2019-04-27T04:02:56.178Z,10.40
2019-04-27T04:08:50.643Z,11.70
2019-04-27T04:14:19.995Z,9.40
2019-04-27T04:20:03.180Z,7.80
2019-04-27T04:25:16.619Z,7.50
2019-04-27T04:30:43.423Z,11.10
2019-04-27T04:36:06.129Z,8.00
2019-04-27T04:41:26.304Z,6.10
2019-04-27T04:46:43.694Z,8.70
2019-04-27T04:52:01.329Z,13.90
2019-04-27T04:57:19.463Z,9.50
2019-04-27T05:02:39.581Z,7.50
2019-04-27T05:07:54.914Z,10.80
2019-04-27T05:13:12.942Z,12.70
2019-04-27T05:18:29.266Z,10.00
2019-04-27T05:23:48.539Z,11.60
2019-04-27T05:29:04.197Z,9.30
2019-04-27T05:34:16.617Z,8.70
2019-04-27T05:39:39.425Z,8.30
2019-04-27T05:44:51.413Z,10.40
2019-04-27T05:50:13.319Z,8.30
2019-04-27T05:55:45.131Z,10.60
2019-04-27T06:01:00.094Z,8.70
2019-04-27T06:06:19.703Z,6.70
2019-04-27T06:11:36.506Z,7.60
2019-04-27T06:17:04.505Z,10.60
2019-04-27T06:22:53.006Z,12.60
2019-04-27T06:28:18.925Z,11.90
2019-04-27T06:33:43.169Z,14.30
2019-04-27T06:40:09.990Z,14.60
2019-04-27T06:45:29.925Z,11.40
2019-04-27T06:51:26.313Z,12.20
2019-04-27T06:57:13.771Z,9.60
2019-04-27T07:03:36.198Z,11.10
2019-04-27T07:09:22.105Z,18.70
2019-04-27T07:15:20.393Z,13.90
2019-04-27T07:20:32.755Z,10.80
2019-04-27T07:30:36.117Z,11.40
2019-04-27T07:36:43.326Z,10.90
2019-04-27T07:43:45.129Z,21.30
2019-04-27T07:51:55.818Z,11.50
2019-04-27T07:58:05.519Z,13.00
2019-04-27T08:03:52.018Z,13.10
2019-04-27T08:09:51.401Z,7.60
2019-04-27T08:16:11.281Z,10.50
2019-04-27T08:21:49.870Z,10.70
2019-04-27T08:27:21.984Z,8.80
2019-04-27T09:01:53.794Z,8.50
2019-04-27T09:07:35.269Z,8.20
2019-04-27T09:13:05.896Z,8.00
2019-04-27T09:19:15.942Z,7.80
2019-04-27T09:25:04.035Z,12.40
2019-04-27T09:30:50.862Z,5.60
2019-04-27T09:43:47.785Z,4.60
2019-04-27T09:50:38.187Z,6.50
2019-04-27T09:58:53.148Z,4.30
2019-04-27T10:04:52.694Z,4.60
2019-04-27T10:14:10.786Z,6.80
2019-04-27T10:26:25.879Z,6.30
2019-04-27T10:31:39.656Z,7.00
2019-04-27T10:37:13.372Z,3.60
2019-04-27T11:36:36.675Z,5.80
2019-04-27T11:42:03.330Z,5.50
2019-04-27T11:47:34.343Z,4.50
2019-04-27T12:09:41.171Z,2.80
2019-04-27T12:14:47.326Z,3.20
2019-04-27T12:20:35.696Z,3.50
2019-04-27T12:27:00.985Z,5.50
2019-04-27T12:33:00.410Z,4.60
2019-04-27T12:39:47.412Z,5.10
2019-04-27T13:18:53.029Z,5.50
2019-04-27T13:24:58.048Z,4.90
2019-04-27T13:30:31.536Z,5.70
2019-04-27T13:52:46.678Z,5.10
2019-04-27T13:57:53.407Z,6.50
2019-04-27T14:02:53.653Z,3.90
2019-04-27T14:08:01.853Z,4.50
2019-04-27T14:13:19.749Z,5.90
2019-04-27T14:18:29.107Z,3.60
2019-04-27T14:23:35.569Z,3.00
2019-04-27T14:28:48.063Z,4.40
2019-04-27T14:34:06.082Z,2.70
2019-04-27T14:39:43.580Z,3.60
2019-04-27T14:44:46.602Z,2.40
2019-04-27T14:50:04.739Z,3.30
2019-04-27T14:55:10.721Z,4.50
2019-04-27T15:00:25.446Z,5.70
2019-04-27T15:06:09.124Z,4.30
2019-04-27T15:24:15.828Z,2.90
2019-04-27T15:29:55.757Z,5.10
2019-04-27T15:35:35.408Z,3.20
2019-04-27T15:40:48.645Z,4.50
2019-04-27T15:47:08.369Z,6.90
2019-04-27T15:52:29.971Z,6.00
2019-04-27T15:57:50.422Z,7.00
2019-04-27T16:03:43.558Z,5.80
2019-04-27T16:10:02.596Z,6.60
2019-04-27T16:15:40.571Z,8.30
2019-04-27T16:21:20.342Z,6.00
2019-04-27T16:26:29.788Z,5.40
2019-04-27T16:32:13.981Z,6.30
2019-04-27T16:37:59.985Z,4.70
2019-04-27T16:43:45.572Z,8.60
2019-04-27T16:49:38.006Z,5.70
2019-04-27T16:54:43.093Z,4.90
2019-04-27T17:00:22.615Z,6.30
2019-04-27T17:05:39.174Z,6.90
2019-04-27T17:11:07.794Z,5.00
2019-04-27T17:16:58.185Z,6.80
2019-04-27T17:22:18.286Z,5.80
2019-04-27T17:31:00.049Z,7.00
2019-04-27T17:36:54.598Z,9.30
2019-04-27T17:47:45.156Z,8.70
2019-04-27T17:56:05.517Z,8.50
2019-04-27T18:00:59.984Z,10.50
2019-04-27T18:08:00.131Z,10.80
2019-04-27T18:16:38.657Z,10.70
2019-04-27T18:30:18.906Z,11.00
2019-04-27T18:36:21.611Z,9.60
2019-04-27T18:41:54.348Z,10.30
2019-04-27T20:03:22.716Z,8.60
2019-04-27T20:08:16.589Z,8.20
2019-04-27T20:13:19.022Z,7.80
2019-04-27T20:19:58.114Z,9.30
2019-04-27T20:26:37.812Z,9.20
2019-04-27T20:34:15.947Z,14.10
2019-04-27T20:40:01.589Z,12.80
2019-04-27T20:47:14.212Z,12.90
2019-04-27T20:54:13.784Z,11.70
2019-04-27T20:59:06.673Z,9.50
2019-04-27T21:04:07.653Z,12.10
2019-04-27T21:26:41.912Z,11.70
2019-04-27T21:31:34.333Z,11.00
2019-04-27T21:44:42.068Z,13.70
2019-04-27T21:54:09.231Z,11.90
2019-04-27T22:06:20.987Z,10.40
2019-04-27T22:38:30.754Z,9.50
2019-04-27T23:11:54.625Z,10.80
